TAF KASE
AMD KASE 090935Z 0910/1006 16004KT 5SM -SN BR VCSH SCT010 OVC035 WS020/26040KT TEMPO 0910/0912 2SM -SHSN BR FM091600 16008KT 4SM -SHSN BR SCT026 BKN040 FM092000 22012G22KT 3SM -SHSN BR SCT016 OVC040 WS020/23035KT FM100000 12010KT 1 1/2SM -SHSN BR SCT015 OVC045 WS020/23035KT=
METAR KASE
WC KASE
WS KASE
WV KASE